Time;durP1;ratioP1;P1;durP2;ratioP2;P2;SDS_P1;SDS_P2;PMS_P1;PMS_P2;Temp;Humidity;BMP_temperature;BMP_pressure;BME280_temperature;BME280_humidity;BME280_pressure;Samples;Min_cycle;Max_cycle;Signal;HPM_P1;HPM_P2
2022/05/29 00:00:18;;;;;;;4.65;2.70;;;;;;;8.20;92.86;67684.69;4991903;28;20039;-84
2022/05/29 00:02:43;;;;;;;9.30;3.40;;;;;;;8.13;93.05;67682.63;4991485;28;20109;-85
2022/05/29 00:05:11;;;;;;;7.20;3.33;;;;;;;8.12;93.56;67676.22;4991691;28;20502;-85
2022/05/29 00:07:38;;;;;;;9.18;3.42;;;;;;;8.19;93.37;67684.13;4990432;28;20159;-83
2022/05/29 00:10:07;;;;;;;10.52;3.22;;;;;;;8.00;94.40;67662.59;4994779;28;20460;-84
2022/05/29 00:12:33;;;;;;;6.93;3.08;;;;;;;8.14;94.11;67679.03;4993253;28;20050;-84
2022/05/29 00:14:58;;;;;;;10.23;3.45;;;;;;;7.99;94.98;67661.47;5004665;28;20726;-84
2022/05/29 00:17:23;;;;;;;6.75;3.22;;;;;;;8.03;94.68;67666.03;4985454;28;20049;-84
2022/05/29 00:19:49;;;;;;;6.93;3.10;;;;;;;7.98;95.07;67660.91;5003018;28;20273;-84
2022/05/29 00:22:17;;;;;;;10.07;3.75;;;;;;;7.91;95.71;67653.56;4983599;28;20041;-85
2022/05/29 00:24:45;;;;;;;9.18;4.13;;;;;;;7.96;95.63;67658.09;4990549;28;20132;-85
2022/05/29 00:27:12;;;;;;;9.55;3.45;;;;;;;7.94;95.72;67655.81;5005834;28;20042;-84
2022/05/29 00:29:38;;;;;;;8.32;3.83;;;;;;;8.05;95.01;67668.84;4992235;28;20042;-84
2022/05/29 00:32:05;;;;;;;9.02;3.70;;;;;;;8.01;94.94;67663.75;4992906;28;20038;-84
2022/05/29 00:34:31;;;;;;;11.63;3.55;;;;;;;8.00;94.88;67663.19;5009537;28;20046;-84
2022/05/29 00:36:58;;;;;;;10.43;3.42;;;;;;;7.99;94.89;67661.47;4993901;28;20572;-84
2022/05/29 00:39:26;;;;;;;9.52;3.95;;;;;;;7.96;95.13;67660.75;5007727;28;20146;-84
2022/05/29 00:41:52;;;;;;;10.25;3.53;;;;;;;7.85;95.74;67646.19;4990568;28;20042;-84
2022/05/29 00:44:28;;;;;;;8.63;3.58;;;;;;;7.83;96.46;67643.94;4992929;28;20041;-85
2022/05/29 00:46:56;;;;;;;7.75;3.83;;;;;;;7.91;95.71;67653.56;4993815;28;20062;-85
2022/05/29 00:49:26;;;;;;;9.52;3.90;;;;;;;7.88;96.04;67649.59;4993045;28;20049;-84
2022/05/29 00:52:01;;;;;;;11.32;4.55;;;;;;;7.88;95.58;67652.81;4993886;28;20125;-84
2022/05/29 00:54:29;;;;;;;13.73;3.88;;;;;;;7.75;96.37;67640.19;4983361;28;20073;-84
2022/05/29 00:56:57;;;;;;;7.57;3.78;;;;;;;7.78;96.49;67638.84;4993632;28;20070;-84
2022/05/29 00:59:29;;;;;;;8.95;4.28;;;;;;;7.69;96.62;67631.88;4995339;28;20044;-84
2022/05/29 01:01:56;;;;;;;11.43;4.88;;;;;;;7.74;96.53;67636.38;4989706;28;20038;-84
2022/05/29 01:04:22;;;;;;;8.15;3.67;;;;;;;7.59;97.14;67617.31;4993333;28;20434;-84
2022/05/29 01:06:48;;;;;;;10.88;3.85;;;;;;;7.56;97.71;67619.22;4991089;28;20129;-84
2022/05/29 01:09:14;;;;;;;11.05;3.55;;;;;;;7.56;97.86;67614.50;4993067;28;20050;-84
2022/05/29 01:11:51;;;;;;;9.35;3.63;;;;;;;7.60;96.99;67618.47;4990615;28;20051;-84
2022/05/29 01:14:24;;;;;;;12.88;4.70;;;;;;;7.50;98.07;67607.16;4984269;28;20041;-84
2022/05/29 01:17:27;;;;;;;11.13;4.25;;;;;;;7.47;98.47;67604.31;4992511;28;20686;-84
2022/05/29 01:20:20;;;;;;;9.32;4.13;;;;;;;7.53;98.31;67610.53;5005447;28;20070;-83
2022/05/29 01:23:01;;;;;;;9.45;3.83;;;;;;;7.43;99.03;67605.66;5005002;28;20097;-84
2022/05/29 01:25:35;;;;;;;10.73;4.25;;;;;;;7.46;98.98;67603.75;4986075;28;20576;-84
2022/05/29 01:28:43;;;;;;;10.30;4.50;;;;;;;7.46;99.50;67606.41;4987673;28;20174;-85
2022/05/29 01:31:28;;;;;;;8.82;4.00;;;;;;;7.48;99.48;67610.75;4972419;28;20697;-84
2022/05/29 01:34:24;;;;;;;10.35;4.20;;;;;;;7.53;99.62;67615.84;4951820;28;20072;-84
2022/05/29 01:37:01;;;;;;;10.93;4.00;;;;;;;7.47;99.73;67607.53;4984664;28;20046;-85
2022/05/29 01:39:33;;;;;;;10.05;4.35;;;;;;;7.45;100.00;67602.63;4989971;28;20460;-85
2022/05/29 01:42:04;;;;;;;9.75;4.10;;;;;;;;;;4988314;28;20046;-85
2022/05/29 01:44:32;;;;;;;12.35;4.35;;;;;;;7.56;99.75;67617.16;4991621;28;20030;-85
2022/05/29 01:47:27;;;;;;;8.18;4.00;;;;;;;7.57;99.99;67620.38;4988475;28;20039;-85
2022/05/29 01:50:01;;;;;;;8.90;3.75;;;;;;;7.45;100.00;67602.03;4992924;28;20046;-85
2022/05/29 01:52:32;;;;;;;11.20;4.60;;;;;;;7.48;100.00;67605.47;4990147;28;20051;-85
2022/05/29 01:55:15;;;;;;;9.10;4.55;;;;;;;7.54;100.00;67614.31;5003987;28;20034;-85
2022/05/29 01:57:44;;;;;;;7.15;4.40;;;;;;;7.64;100.00;67623.00;4999136;28;20046;-85
2022/05/29 02:00:16;;;;;;;12.80;4.25;;;;;;;7.69;100.00;67628.66;4985284;28;20030;-85
2022/05/29 02:02:43;;;;;;;9.35;4.45;;;;;;;7.72;100.00;67632.06;4990368;28;20042;-85
2022/05/29 02:05:14;;;;;;;7.50;4.55;;;;;;;7.82;100.00;67646.00;4988989;28;20064;-85
2022/05/29 02:07:50;;;;;;;9.20;4.13;;;;;;;7.84;100.00;67645.63;4991098;28;20034;-85
2022/05/29 02:10:15;;;;;;;10.05;4.38;;;;;;;;;;4998514;28;20034;-85
2022/05/29 02:12:48;;;;;;;13.63;4.93;;;;;;;7.93;100.00;67657.34;5006921;28;20046;-85
2022/05/29 02:15:16;;;;;;;10.23;4.75;;;;;;;;;;4998009;28;20054;-85
2022/05/29 02:17:47;;;;;;;7.22;4.50;;;;;;;7.95;100.00;67662.25;4994984;28;20248;-85
2022/05/29 02:20:21;;;;;;;8.82;5.07;;;;;;;;;;4986113;28;20074;-84
2022/05/29 02:22:49;;;;;;;8.30;4.78;;;;;;;7.95;100.00;67656.97;4980282;28;20100;-85
2022/05/29 02:25:19;;;;;;;11.38;5.50;;;;;;;7.95;100.00;67662.81;4985909;28;20037;-85
2022/05/29 02:28:16;;;;;;;10.48;5.72;;;;;;;8.03;100.00;67666.03;4987626;28;20165;-86
2022/05/29 02:30:57;;;;;;;11.25;4.80;;;;;;;8.07;100.00;67670.53;4997708;28;20039;-86
2022/05/29 02:33:25;;;;;;;9.55;4.32;;;;;;;8.00;100.00;67665.25;4986716;28;20061;-83
2022/05/29 02:36:29;;;;;;;10.20;4.70;;;;;;;;;;4987123;28;20078;-84
2022/05/29 02:39:06;;;;;;;13.73;4.93;;;;;;;7.99;100.00;67662.03;4972108;28;20038;-84
2022/05/29 02:41:49;;;;;;;10.95;4.88;;;;;;;7.98;100.00;67660.34;4986572;28;20042;-85
2022/05/29 02:44:37;;;;;;;12.68;5.20;;;;;;;7.98;100.00;67665.66;4982895;28;20114;-85
2022/05/29 02:47:28;;;;;;;12.48;5.05;;;;;;;8.10;100.00;67676.59;4986661;28;20065;-85
2022/05/29 02:50:18;;;;;;;11.27;5.65;;;;;;;8.07;100.00;67671.09;5001609;28;20046;-85
2022/05/29 02:52:44;;;;;;;10.38;5.97;;;;;;;8.03;100.00;67666.03;4963374;28;20046;-85
2022/05/29 02:55:11;;;;;;;15.60;6.22;;;;;;;8.13;100.00;67680.00;4988838;28;20050;-85
2022/05/29 02:57:36;;;;;;;13.18;5.80;;;;;;;8.04;100.00;67667.16;4986249;28;20038;-85
2022/05/29 03:00:11;;;;;;;11.32;5.93;;;;;;;8.11;100.00;67675.06;4987052;28;20042;-85
2022/05/29 03:02:46;;;;;;;11.48;5.25;;;;;;;8.17;100.00;67681.88;4985551;28;20042;-86
2022/05/29 03:05:25;;;;;;;12.98;5.60;;;;;;;8.23;100.00;67693.41;4983407;28;20038;-85
2022/05/29 03:08:01;;;;;;;13.30;5.88;;;;;;;8.18;100.00;67683.00;4985911;28;20046;-84
2022/05/29 03:10:34;;;;;;;9.20;5.28;;;;;;;8.13;100.00;67677.34;5003072;28;20250;-85
2022/05/29 03:13:02;;;;;;;12.07;5.68;;;;;;;;;;5004998;28;20065;-85
2022/05/29 03:15:27;;;;;;;8.38;6.07;;;;;;;;;;4990302;28;20050;-85
2022/05/29 03:18:06;;;;;;;13.17;6.47;;;;;;;8.25;100.00;67690.94;4992063;28;20185;-85
2022/05/29 03:20:40;;;;;;;11.40;5.40;;;;;;;8.30;100.00;67696.59;4992301;28;20277;-85
2022/05/29 03:23:32;;;;;;;11.77;6.00;;;;;;;8.26;100.00;67692.06;4987796;28;20047;-85
2022/05/29 03:26:02;;;;;;;11.77;5.03;;;;;;;8.23;100.00;67688.09;5004127;28;20049;-84
2022/05/29 03:28:36;;;;;;;14.23;5.43;;;;;;;8.27;100.00;67692.63;5005548;28;20196;-85
2022/05/29 03:31:07;;;;;;;11.80;5.47;;;;;;;8.36;100.00;67703.38;4990435;28;20034;-86
2022/05/29 03:33:33;;;;;;;13.10;4.53;;;;;;;8.32;100.00;67703.59;4988039;28;20125;-85
2022/05/29 03:35:58;;;;;;;11.27;4.88;;;;;;;8.31;100.00;67700.38;4990723;28;20125;-88
2022/05/29 03:38:23;;;;;;;10.77;4.82;;;;;;;8.32;100.00;67698.88;4991436;28;20050;-86
2022/05/29 03:40:50;;;;;;;11.68;4.80;;;;;;;8.33;100.00;67705.28;4991233;28;20161;-86
2022/05/29 03:43:16;;;;;;;10.07;5.90;;;;;;;8.45;100.00;67715.13;4990361;28;20084;-87
2022/05/29 03:45:41;;;;;;;9.40;4.60;;;;;;;8.39;100.00;67711.53;4990249;28;20050;-86
2022/05/29 03:48:07;;;;;;;10.88;4.97;;;;;;;8.42;100.00;67712.28;4988768;28;20045;-86
2022/05/29 03:50:34;;;;;;;9.32;5.13;;;;;;;;;;4990510;28;20096;-87
2022/05/29 03:53:01;;;;;;;12.25;5.00;;;;;;;8.45;100.00;67717.78;4989264;28;20076;-86
2022/05/29 03:55:26;;;;;;;9.43;5.22;;;;;;;8.47;100.00;67717.97;5001188;28;20092;-85
2022/05/29 03:57:52;;;;;;;7.45;4.85;;;;;;;8.46;100.00;67713.59;4990564;28;20061;-86
2022/05/29 04:00:19;;;;;;;8.75;5.10;;;;;;;8.48;100.00;67716.44;4984107;28;20054;-86
2022/05/29 04:02:45;;;;;;;12.38;6.10;;;;;;;8.53;100.00;67722.09;4990933;28;20045;-86
2022/05/29 04:05:16;;;;;;;11.32;5.72;;;;;;;8.52;100.00;67725.72;4990574;28;20655;-85
2022/05/29 04:13:10;;;;;;;8.07;4.63;;;;;;;8.54;100.00;67725.88;4971157;28;20049;-85
2022/05/29 04:15:37;;;;;;;12.18;4.30;;;;;;;8.59;100.00;67728.34;4983706;28;20129;-86
2022/05/29 04:18:03;;;;;;;8.43;5.25;;;;;;;;;;4990983;28;20038;-85
2022/05/29 04:20:29;;;;;;;11.40;5.00;;;;;;;8.65;100.00;67737.22;4990538;28;20398;-85
2022/05/29 04:22:54;;;;;;;10.30;5.15;;;;;;;;;;4991775;28;20069;-85
2022/05/29 04:25:19;;;;;;;10.10;4.82;;;;;;;8.68;100.00;67737.97;4991273;28;20065;-85
2022/05/29 04:27:45;;;;;;;10.57;4.32;;;;;;;8.73;100.00;67744.19;4992671;28;20046;-85
2022/05/29 04:30:12;;;;;;;10.63;5.30;;;;;;;8.80;100.00;67754.78;4990408;28;20070;-85
2022/05/29 04:35:21;;;;;;;10.15;4.78;;;;;;;;;;4988925;28;20112;-87
2022/05/29 04:37:48;;;;;;;9.50;4.55;;;;;;;8.86;100.00;67758.38;4990168;28;20494;-86
2022/05/29 04:40:14;;;;;;;8.55;4.60;;;;;;;8.89;100.00;67761.19;4988823;28;20472;-86
2022/05/29 04:42:40;;;;;;;12.70;4.95;;;;;;;8.90;100.00;67768.22;4987604;28;20040;-87
2022/05/29 04:45:05;;;;;;;9.60;4.55;;;;;;;8.94;100.00;67772.16;4988035;28;20039;-87
2022/05/29 04:47:31;;;;;;;10.48;4.35;;;;;;;8.91;100.00;67763.47;5000509;28;20045;-86
2022/05/29 04:49:56;;;;;;;12.73;4.95;;;;;;;8.95;100.00;67768.00;4989044;28;20039;-86
2022/05/29 04:52:21;;;;;;;10.25;5.13;;;;;;;;;;4988235;28;20406;-87
2022/05/29 04:54:47;;;;;;;8.98;4.70;;;;;;;;;;4989947;28;20042;-88
2022/05/29 04:57:12;;;;;;;12.00;4.70;;;;;;;8.99;100.00;67773.09;4989976;28;20096;-87
2022/05/29 04:59:38;;;;;;;9.57;4.38;;;;;;;9.01;100.00;67774.81;5004328;28;20054;-87
2022/05/29 05:02:04;;;;;;;10.90;4.72;;;;;;;9.06;100.00;67785.75;4988637;28;20065;-88
2022/05/29 05:04:30;;;;;;;9.15;4.70;;;;;;;9.03;100.00;67777.06;4986416;28;20120;-87
2022/05/29 05:06:59;;;;;;;11.27;5.55;;;;;;;9.02;100.00;67779.16;4988519;28;20494;-88
2022/05/29 05:09:26;;;;;;;10.82;6.20;;;;;;;9.11;100.00;67786.13;4986793;28;20047;-87
2022/05/29 05:11:52;;;;;;;11.35;4.95;;;;;;;;;;4986240;28;20560;-88
2022/05/29 05:14:19;;;;;;;10.85;4.65;;;;;;;9.16;100.00;67796.53;4987875;28;20069;-87
2022/05/29 05:16:45;;;;;;;11.30;5.35;;;;;;;9.18;100.00;67794.06;4989188;28;20081;-87
2022/05/29 05:19:11;;;;;;;14.27;5.05;;;;;;;9.19;100.00;67795.19;4989189;28;20045;-86
2022/05/29 05:21:36;;;;;;;11.93;4.90;;;;;;;9.30;100.00;67806.53;5002037;28;20046;-87
2022/05/29 05:24:04;;;;;;;9.45;5.22;;;;;;;9.32;100.00;67811.44;4987786;28;20046;-87
2022/05/29 05:26:29;;;;;;;9.77;5.45;;;;;;;;;;5002613;28;20038;-86
2022/05/29 05:28:54;;;;;;;8.75;4.40;;;;;;;;;;4988218;28;20042;-86
2022/05/29 05:31:19;;;;;;;10.00;4.30;;;;;;;;;;4986568;28;20512;-86
2022/05/29 05:33:45;;;;;;;9.47;4.37;;;;;;;9.56;100.00;67830.13;4989262;28;20070;-87
2022/05/29 05:36:11;;;;;;;9.20;4.18;;;;;;;9.57;100.00;67831.81;4993108;28;20332;-87
2022/05/29 05:38:37;;;;;;;8.13;3.92;;;;;;;9.57;100.00;67837.13;4991288;28;20501;-87
2022/05/29 05:41:02;;;;;;;9.20;3.92;;;;;;;9.59;100.00;67842.06;4990311;28;20057;-87
2022/05/29 05:43:27;;;;;;;9.13;4.22;;;;;;;9.61;100.00;67841.69;4997382;28;20517;-87
2022/05/29 05:45:53;;;;;;;11.70;4.35;;;;;;;;;;5004028;28;20050;-86
2022/05/29 05:48:18;;;;;;;10.00;4.18;;;;;;;9.65;100.00;67845.66;4988317;28;20137;-85
2022/05/29 05:50:43;;;;;;;9.70;4.50;;;;;;;;;;4986551;28;20069;-86
2022/05/29 05:53:08;;;;;;;11.30;4.20;;;;;;;9.66;100.00;67846.78;5003607;28;20049;-85
2022/05/29 05:55:36;;;;;;;9.30;4.53;;;;;;;9.68;100.00;67849.63;4988350;28;20061;-85
2022/05/29 05:58:02;;;;;;;9.00;5.00;;;;;;;9.70;100.00;67851.88;4968155;28;20101;-86
2022/05/29 06:00:28;;;;;;;10.50;3.40;;;;;;;9.71;100.00;67853.00;4999327;28;20049;-85
2022/05/29 06:02:53;;;;;;;8.82;3.95;;;;;;;9.69;100.00;67850.75;4988425;28;20042;-86
2022/05/29 06:05:18;;;;;;;9.93;3.72;;;;;;;9.70;100.00;67854.53;5001900;28;20053;-86
2022/05/29 06:07:44;;;;;;;9.02;3.78;;;;;;;9.76;100.00;67857.56;4987857;28;20493;-86
2022/05/29 06:10:10;;;;;;;8.57;4.18;;;;;;;9.85;100.00;67871.00;4986395;28;20034;-86
2022/05/29 06:12:37;;;;;;;12.65;4.50;;;;;;;9.84;100.00;67867.19;4985997;28;20450;-86
2022/05/29 06:15:03;;;;;;;6.85;3.40;;;;;;;9.79;100.00;67860.97;4980661;28;20065;-87
2022/05/29 06:17:30;;;;;;;12.35;4.18;;;;;;;9.93;100.00;67876.84;4986845;28;20045;-86
2022/05/29 06:19:55;;;;;;;7.15;3.80;;;;;;;9.88;100.00;67871.16;4987152;28;20093;-86
2022/05/29 06:22:21;;;;;;;9.73;3.90;;;;;;;9.86;100.00;67872.13;4986467;28;20046;-86
2022/05/29 06:24:46;;;;;;;9.23;4.10;;;;;;;9.95;100.00;67884.41;4986797;28;20050;-87
2022/05/29 06:27:12;;;;;;;9.60;4.30;;;;;;;10.00;100.00;67878.88;4987103;28;20041;-85
2022/05/29 06:29:37;;;;;;;7.35;3.95;;;;;;;10.13;100.00;67898.97;4987914;28;20058;-85
2022/05/29 06:32:04;;;;;;;8.68;3.33;;;;;;;10.20;100.00;67906.91;4985145;28;20742;-86
2022/05/29 06:34:30;;;;;;;8.18;3.28;;;;;;;10.34;100.00;67922.22;4984707;28;20046;-86
2022/05/29 06:36:55;;;;;;;6.38;3.50;;;;;;;;;;4989339;28;20122;-85
2022/05/29 06:39:22;;;;;;;10.93;4.32;;;;;;;;;;4971104;28;20125;-85
2022/05/29 06:41:47;;;;;;;6.75;3.67;;;;;;;10.51;100.00;67944.19;4984511;28;20046;-85
2022/05/29 06:44:13;;;;;;;8.82;3.55;;;;;;;10.55;100.00;67946.06;4989449;28;20034;-85
2022/05/29 06:46:38;;;;;;;9.95;4.10;;;;;;;10.70;100.00;67956.63;4987439;28;20558;-85
2022/05/29 06:49:04;;;;;;;8.85;3.22;;;;;;;10.59;97.72;67950.59;5005488;28;20057;-85
2022/05/29 06:51:29;;;;;;;8.77;3.80;;;;;;;10.57;98.54;67947.75;4984019;28;20049;-86
2022/05/29 06:53:56;;;;;;;8.90;3.58;;;;;;;10.68;99.42;67960.25;4991565;28;20046;-85
2022/05/29 06:56:23;;;;;;;11.48;3.80;;;;;;;10.79;98.84;67972.19;4986000;28;20057;-85
2022/05/29 06:58:49;;;;;;;9.57;3.60;;;;;;;10.80;97.89;67973.31;4991029;28;20081;-86
2022/05/29 07:07:02;;;;;;;10.80;4.03;;;;;;;10.98;97.17;67996.38;5002502;28;20050;-85
2022/05/29 07:09:32;;;;;;;9.88;3.20;;;;;;;10.91;95.92;67979.91;4991533;28;20567;-84
2022/05/29 07:12:05;;;;;;;8.80;3.53;;;;;;;10.89;95.56;67986.19;4989291;28;20106;-85
2022/05/29 07:14:31;;;;;;;6.30;2.72;;;;;;;10.97;95.41;67992.03;4990345;28;20042;-85
2022/05/29 07:16:56;;;;;;;9.73;3.55;;;;;;;;;;4990377;28;20038;-85
2022/05/29 07:19:24;;;;;;;10.98;3.60;;;;;;;10.93;95.17;67982.16;4988700;28;20046;-85
2022/05/29 07:21:50;;;;;;;8.60;3.35;;;;;;;10.91;96.75;67985.78;4988113;28;20872;-86
2022/05/29 07:24:15;;;;;;;7.72;4.30;;;;;;;10.86;98.62;67980.09;4987346;28;20101;-86
2022/05/29 07:26:40;;;;;;;10.05;3.50;;;;;;;10.71;97.85;67966.31;4987202;28;20038;-86
2022/05/29 07:29:06;;;;;;;9.43;3.53;;;;;;;10.69;99.89;67960.81;5002378;28;20501;-87
2022/05/29 07:31:31;;;;;;;10.70;3.70;;;;;;;10.77;100.00;67969.91;4987262;28;20053;-86
2022/05/29 07:33:57;;;;;;;9.10;3.00;;;;;;;;;;4987224;28;20586;-85
2022/05/29 07:36:24;;;;;;;8.90;3.70;;;;;;;10.91;100.00;67985.78;4989576;28;20153;-86
2022/05/29 07:38:50;;;;;;;11.60;3.28;;;;;;;;;;4990051;28;20630;-85
2022/05/29 07:44:00;;;;;;;9.70;3.10;;;;;;;;;;5003540;28;20109;-85
2022/05/29 07:46:25;;;;;;;6.43;2.72;;;;;;;11.23;95.46;68020.97;4982831;28;20121;-85
2022/05/29 07:48:51;;;;;;;8.60;2.75;;;;;;;11.27;95.17;68020.19;4982783;28;20126;-86
2022/05/29 07:51:16;;;;;;;9.85;3.65;;;;;;;11.32;95.08;68031.19;4998767;28;20259;-86
2022/05/29 07:53:42;;;;;;;12.73;3.30;;;;;;;11.36;95.38;68035.72;4987735;28;20230;-86
2022/05/29 07:56:07;;;;;;;12.40;3.47;;;;;;;;;;4983818;28;20498;-87
2022/05/29 07:58:34;;;;;;;8.75;3.22;;;;;;;11.44;93.67;68047.47;4989506;28;20053;-84
2022/05/29 08:00:59;;;;;;;8.10;2.95;;;;;;;;;;4989137;28;20425;-87
2022/05/29 08:03:25;;;;;;;8.57;3.22;;;;;;;;;;5003749;28;20046;-87
2022/05/29 08:05:51;;;;;;;7.80;3.38;;;;;;;11.69;92.73;68072.66;5007059;28;20121;-85
2022/05/29 08:08:16;;;;;;;9.13;3.45;;;;;;;11.62;91.71;68058.78;4991611;28;20054;-85
2022/05/29 08:10:43;;;;;;;9.48;3.05;;;;;;;11.71;91.51;68074.94;5004935;28;20038;-86
2022/05/29 08:13:09;;;;;;;8.38;3.33;;;;;;;11.79;90.94;68083.44;4992789;28;20042;-85
2022/05/29 08:15:36;;;;;;;10.35;3.40;;;;;;;11.80;89.95;68084.59;4991204;28;20449;-85
2022/05/29 08:18:02;;;;;;;7.57;2.80;;;;;;;11.80;89.46;68084.59;4992477;28;20038;-85
2022/05/29 08:20:29;;;;;;;12.02;3.42;;;;;;;11.82;88.72;68086.84;4991301;28;20049;-85
2022/05/29 08:22:54;;;;;;;10.23;2.88;;;;;;;11.88;88.21;68093.69;4992098;28;20126;-85
2022/05/29 08:30:53;;;;;;;9.52;3.30;;;;;;;11.82;87.25;68080.94;5002706;28;20140;-85
2022/05/29 08:33:20;;;;;;;6.80;1.88;;;;;;;11.86;87.16;68085.53;5002931;28;20035;-85
2022/05/29 08:35:47;;;;;;;6.80;2.25;;;;;;;11.90;86.11;68095.38;4992918;28;20528;-85
2022/05/29 08:38:16;;;;;;;8.02;2.28;;;;;;;11.94;85.98;68100.50;4991443;28;20039;-86
2022/05/29 08:40:49;;;;;;;6.90;2.50;;;;;;;12.08;85.39;68115.28;5001094;28;20495;-85
2022/05/29 08:43:33;;;;;;;11.10;2.00;;;;;;;11.99;83.53;68099.72;4990665;28;20379;-86
2022/05/29 08:46:02;;;;;;;5.82;2.20;;;;;;;11.99;84.13;68105.03;4999649;28;20661;-85
2022/05/29 08:48:28;;;;;;;9.32;2.50;;;;;;;12.06;84.37;68113.00;4991509;28;20054;-85
2022/05/29 08:51:13;;;;;;;8.73;2.35;;;;;;;12.11;83.87;68124.00;4991755;28;20042;-85
2022/05/29 08:53:38;;;;;;;7.55;2.15;;;;;;;;;;4990354;28;21693;-85
2022/05/29 08:56:18;;;;;;;6.73;2.27;;;;;;;12.25;83.47;68129.25;5005926;28;20046;-85
2022/05/29 08:58:49;;;;;;;6.13;2.20;;;;;;;;;;4990186;28;20053;-85
2022/05/29 09:01:14;;;;;;;6.07;1.90;;;;;;;;;;4990979;28;20042;-85
2022/05/29 09:04:04;;;;;;;5.93;1.93;;;;;;;12.34;81.78;68144.25;4990929;28;20046;-85
2022/05/29 09:06:33;;;;;;;7.18;1.90;;;;;;;;;;4988347;28;20286;-85
2022/05/29 09:09:24;;;;;;;8.05;2.10;;;;;;;12.37;82.56;68148.25;4991714;28;20259;-85
2022/05/29 09:11:56;;;;;;;6.88;1.80;;;;;;;12.34;81.70;68144.81;4989636;28;20108;-87
2022/05/29 09:14:30;;;;;;;10.02;2.25;;;;;;;;;;4991819;28;20054;-84
2022/05/29 09:17:18;;;;;;;8.23;2.00;;;;;;;;;;4990534;28;20046;-86
2022/05/29 09:19:58;;;;;;;7.97;2.10;;;;;;;12.04;84.95;68111.28;4973792;28;20098;-88
2022/05/29 09:22:30;;;;;;;7.80;2.65;;;;;;;;;;4987530;28;20533;-86
2022/05/29 09:25:05;;;;;;;8.40;2.22;;;;;;;11.95;86.53;68095.75;4988720;28;20043;-86
2022/05/29 09:27:31;;;;;;;5.85;2.22;;;;;;;11.93;86.34;68099.38;4987709;28;20118;-87
2022/05/29 09:30:04;;;;;;;6.70;2.60;;;;;;;12.00;87.77;68106.19;5003319;28;20105;-86
2022/05/29 09:32:32;;;;;;;8.95;2.63;;;;;;;11.87;90.00;68092.53;4982329;28;20101;-85
2022/05/29 09:35:06;;;;;;;7.90;2.90;;;;;;;;;;5003679;22;20113;-81
2022/05/29 09:37:56;;;;;;;10.23;2.70;;;;;;;11.59;92.25;68066.63;4988245;28;20089;-82
2022/05/29 09:40:26;;;;;;;7.50;2.95;;;;;;;11.61;93.26;68063.00;4992420;28;20386;-81
2022/05/29 09:42:53;;;;;;;7.45;2.50;;;;;;;11.49;93.85;68050.50;4990764;28;20104;-81
2022/05/29 09:45:25;;;;;;;5.97;2.30;;;;;;;11.48;92.88;68048.81;5001016;28;20514;-81
2022/05/29 09:50:45;;;;;;;8.02;2.25;;;;;;;11.60;93.41;68062.44;4953036;28;20517;-81
2022/05/29 09:53:34;;;;;;;7.32;1.95;;;;;;;11.82;92.82;68089.50;4953950;28;20043;-81
2022/05/29 09:56:09;;;;;;;5.68;2.05;;;;;;;11.89;89.47;68094.25;4961284;28;20075;-81
2022/05/29 09:58:51;;;;;;;6.32;2.13;;;;;;;11.92;91.10;68098.22;4951654;28;20062;-81
2022/05/29 10:01:28;;;;;;;7.63;2.35;;;;;;;;;;4951938;28;20041;-82
2022/05/29 10:03:55;;;;;;;7.07;3.45;;;;;;;;;;4965421;28;20047;-82
2022/05/29 10:06:35;;;;;;;10.45;2.70;;;;;;;12.14;88.25;68122.66;4953717;28;20047;-82
2022/05/29 10:09:21;;;;;;;5.72;2.13;;;;;;;12.49;87.10;68161.31;4954133;28;20118;-82
2022/05/29 10:11:53;;;;;;;6.30;2.15;;;;;;;12.29;86.52;68133.25;4984219;28;20062;-82
2022/05/29 10:14:30;;;;;;;7.70;1.85;;;;;;;12.31;85.56;68135.50;4954023;28;20079;-81
2022/05/29 10:16:55;;;;;;;8.05;2.15;;;;;;;;;;4952892;28;20044;-83
2022/05/29 10:19:37;;;;;;;7.32;2.40;;;;;;;12.55;84.61;68167.56;4948844;28;20506;-82
2022/05/29 10:22:08;;;;;;;7.63;2.45;;;;;;;;;;4953277;28;20040;-82
2022/05/29 10:24:37;;;;;;;9.20;2.28;;;;;;;12.58;84.06;68174.19;4954679;28;20039;-83
2022/05/29 10:27:02;;;;;;;;;;;;;;;;;;4956694;28;20125;-82
2022/05/29 10:29:29;;;;;;;6.43;1.50;;;;;;;;;;4956083;28;20380;-82
2022/05/29 10:31:55;;;;;;;5.40;1.80;;;;;;;12.53;79.54;68159.94;4951624;28;20043;-83
2022/05/29 10:34:22;;;;;;;6.80;1.67;;;;;;;12.63;78.34;68177.22;4956813;28;20047;-82
2022/05/29 10:36:48;;;;;;;5.95;1.45;;;;;;;;;;4967377;28;20055;-83
2022/05/29 10:39:28;;;;;;;6.13;1.48;;;;;;;;;;4956103;28;20095;-83
2022/05/29 10:41:55;;;;;;;6.18;1.70;;;;;;;12.92;72.67;68211.13;4966237;28;20054;-82
2022/05/29 10:44:55;;;;;;;6.68;1.67;;;;;;;;;;4968083;28;20043;-82
2022/05/29 10:47:44;;;;;;;6.20;1.30;;;;;;;13.18;70.44;68232.13;4936743;29;20106;-82
2022/05/29 10:50:27;;;;;;;6.78;1.65;;;;;;;13.20;70.48;68234.97;4942837;28;20051;-81
2022/05/29 10:53:03;;;;;;;5.45;1.50;;;;;;;13.30;70.66;68251.16;4942830;28;20050;-81
2022/05/29 10:55:31;;;;;;;5.13;1.50;;;;;;;;;;4963321;28;20027;-82
2022/05/29 10:58:30;;;;;;;5.30;1.30;;;;;;;13.46;67.34;68268.75;4950057;28;20042;-82
2022/05/29 11:01:05;;;;;;;8.00;1.58;;;;;;;13.51;68.55;68274.47;4963132;28;20141;-82
2022/05/29 11:03:34;;;;;;;6.43;1.38;;;;;;;;;;4961850;28;20047;-82
2022/05/29 11:06:24;;;;;;;9.75;2.03;;;;;;;13.30;67.87;68251.16;4971049;28;20079;-81
2022/05/29 11:08:59;;;;;;;6.95;1.52;;;;;;;;;;4949339;28;20118;-81
2022/05/29 11:11:55;;;;;;;6.18;1.48;;;;;;;13.17;66.49;68242.25;4949980;28;20043;-81
2022/05/29 11:14:20;;;;;;;6.82;1.50;;;;;;;;;;4950465;28;20054;-82
2022/05/29 11:17:04;;;;;;;5.55;1.33;;;;;;;13.05;68.71;68223.81;4949834;28;20055;-81
2022/05/29 11:20:03;;;;;;;5.38;1.42;;;;;;;13.04;69.39;68222.69;4931188;28;20142;-81
2022/05/29 11:22:40;;;;;;;5.90;1.92;;;;;;;13.12;69.03;68225.88;4947004;28;20118;-81
2022/05/29 11:25:23;;;;;;;4.63;1.48;;;;;;;;;;4952569;28;20055;-82
2022/05/29 11:27:51;;;;;;;6.50;1.75;;;;;;;13.26;69.11;68247.16;4942802;28;20051;-83
2022/05/29 11:30:17;;;;;;;5.20;1.40;;;;;;;;;;4971893;28;20054;-82
2022/05/29 11:33:01;;;;;;;10.47;2.57;;;;;;;;;;4960260;28;20047;-82
2022/05/29 11:35:42;;;;;;;5.78;1.55;;;;;;;13.53;69.57;68276.75;4962514;28;20301;-82
2022/05/29 11:38:08;;;;;;;6.82;1.58;;;;;;;;;;4957003;28;20103;-82
2022/05/29 11:40:46;;;;;;;5.97;1.30;;;;;;;13.47;66.19;68265.13;4957623;28;20055;-81
2022/05/29 11:43:24;;;;;;;5.40;1.60;;;;;;;;;;4957374;28;20286;-82
2022/05/29 11:52:03;;;;;;;5.32;1.23;;;;;;;14.12;62.47;68337.38;4968709;28;20066;-80
2022/05/29 11:54:45;;;;;;;4.35;1.25;;;;;;;13.85;64.02;68307.22;4954663;28;20702;-80
2022/05/29 11:57:22;;;;;;;4.82;1.25;;;;;;;14.01;65.98;68324.84;4964254;28;20071;-81
2022/05/29 11:59:57;;;;;;;5.95;1.10;;;;;;;14.07;65.69;68337.03;4963076;28;20057;-81
2022/05/29 12:02:43;;;;;;;4.45;1.10;;;;;;;14.17;63.40;68343.06;4958218;28;20458;-81
2022/05/29 12:05:08;;;;;;;4.18;1.10;;;;;;;;;;4940163;28;20047;-81
2022/05/29 12:07:41;;;;;;;3.43;0.83;;;;;;;14.14;61.74;68344.44;4969136;28;20503;-80
2022/05/29 12:10:07;;;;;;;3.90;1.20;;;;;;;;;;4949116;28;20334;-81
2022/05/29 12:12:38;;;;;;;4.78;1.13;;;;;;;;;;4932411;28;20703;-81
2022/05/29 12:15:07;;;;;;;3.78;1.40;;;;;;;;;;4950182;28;20131;-82
2022/05/29 12:17:49;;;;;;;3.63;1.00;;;;;;;;;;4956322;28;20051;-82
2022/05/29 12:20:23;;;;;;;5.40;1.30;;;;;;;13.82;64.63;68308.59;4965037;28;20062;-82
2022/05/29 12:22:52;;;;;;;6.00;1.63;;;;;;;;;;4954150;28;20055;-82
2022/05/29 12:25:41;;;;;;;9.70;4.78;;;;;;;13.89;66.93;68311.75;4952324;28;20115;-81
2022/05/29 12:28:17;;;;;;;4.45;1.20;;;;;;;13.82;65.81;68308.59;4968515;28;20039;-81
2022/05/29 12:30:48;;;;;;;6.82;1.45;;;;;;;14.05;66.88;68328.84;4931022;28;20083;-82
2022/05/29 12:33:21;;;;;;;6.57;1.80;;;;;;;14.11;65.46;68336.22;4953609;28;20379;-82
2022/05/29 12:35:47;;;;;;;6.40;2.35;;;;;;;14.09;65.60;68338.75;4953220;28;20586;-82
2022/05/29 12:38:38;;;;;;;5.50;2.13;;;;;;;14.22;66.66;68348.75;4952277;28;20068;-81
2022/05/29 12:41:15;;;;;;;6.25;1.98;;;;;;;;;;4958984;28;20052;-80
2022/05/29 12:43:52;;;;;;;7.82;2.70;;;;;;;14.05;66.83;68329.41;4964772;28;20054;-81
2022/05/29 12:46:23;;;;;;;5.75;1.70;;;;;;;;;;4952835;28;20530;-81
2022/05/29 12:49:23;;;;;;;5.70;2.35;;;;;;;14.07;66.66;68331.69;4953069;28;20055;-81
2022/05/29 12:52:00;;;;;;;7.68;3.85;;;;;;;14.13;66.30;68338.53;4982593;28;20051;-81
2022/05/29 12:54:47;;;;;;;4.72;1.50;;;;;;;14.07;65.61;68337.03;4985728;28;20101;-81
2022/05/29 12:57:22;;;;;;;5.70;1.40;;;;;;;;;;4981056;28;20051;-81